sensor_id;sensor_type;location;lat;lon;timestamp;P1;durP1;ratioP1;P2;durP2;ratioP2
36931;SDS011;22847;42.654;23.370;2023-06-22T00:01:56;11.00;;;8.55;;
36931;SDS011;22847;42.654;23.370;2023-06-22T00:04:21;10.95;;;8.27;;
36931;SDS011;22847;42.654;23.370;2023-06-22T00:06:46;10.35;;;9.02;;
36931;SDS011;22847;42.654;23.370;2023-06-22T00:09:12;12.88;;;9.27;;
36931;SDS011;22847;42.654;23.370;2023-06-22T00:11:37;14.35;;;9.43;;
36931;SDS011;22847;42.654;23.370;2023-06-22T00:14:03;13.43;;;9.85;;
36931;SDS011;22847;42.654;23.370;2023-06-22T00:16:29;13.30;;;9.30;;
36931;SDS011;22847;42.654;23.370;2023-06-22T00:18:56;11.25;;;9.15;;
36931;SDS011;22847;42.654;23.370;2023-06-22T00:21:25;16.35;;;9.35;;
36931;SDS011;22847;42.654;23.370;2023-06-22T00:23:54;10.82;;;9.05;;
36931;SDS011;22847;42.654;23.370;2023-06-22T00:26:20;12.35;;;9.75;;
36931;SDS011;22847;42.654;23.370;2023-06-22T00:28:46;10.32;;;8.60;;
36931;SDS011;22847;42.654;23.370;2023-06-22T00:31:12;15.03;;;8.80;;
36931;SDS011;22847;42.654;23.370;2023-06-22T00:33:38;11.95;;;8.85;;
36931;SDS011;22847;42.654;23.370;2023-06-22T00:36:04;13.40;;;8.70;;
36931;SDS011;22847;42.654;23.370;2023-06-22T00:38:29;12.90;;;9.63;;
36931;SDS011;22847;42.654;23.370;2023-06-22T00:40:55;12.15;;;10.00;;
36931;SDS011;22847;42.654;23.370;2023-06-22T00:43:20;12.95;;;9.98;;
36931;SDS011;22847;42.654;23.370;2023-06-22T00:45:46;11.13;;;9.60;;
36931;SDS011;22847;42.654;23.370;2023-06-22T00:48:12;18.10;;;10.07;;
36931;SDS011;22847;42.654;23.370;2023-06-22T00:50:39;13.60;;;10.25;;
36931;SDS011;22847;42.654;23.370;2023-06-22T00:53:06;13.90;;;9.65;;
36931;SDS011;22847;42.654;23.370;2023-06-22T00:55:51;11.55;;;8.95;;
36931;SDS011;22847;42.654;23.370;2023-06-22T00:58:17;12.10;;;8.48;;
36931;SDS011;22847;42.654;23.370;2023-06-22T01:00:46;11.25;;;8.65;;
36931;SDS011;22847;42.654;23.370;2023-06-22T01:03:12;14.40;;;9.00;;
36931;SDS011;22847;42.654;23.370;2023-06-22T01:05:38;11.30;;;8.57;;
36931;SDS011;22847;42.654;23.370;2023-06-22T01:10:36;14.93;;;9.73;;
36931;SDS011;22847;42.654;23.370;2023-06-22T01:16:40;10.63;;;8.40;;
36931;SDS011;22847;42.654;23.370;2023-06-22T01:18:50;15.65;;;9.75;;
36931;SDS011;22847;42.654;23.370;2023-06-22T01:21:19;10.90;;;8.77;;
36931;SDS011;22847;42.654;23.370;2023-06-22T01:24:04;16.00;;;9.52;;
36931;SDS011;22847;42.654;23.370;2023-06-22T01:26:42;10.18;;;8.93;;
36931;SDS011;22847;42.654;23.370;2023-06-22T01:29:14;11.85;;;9.10;;
36931;SDS011;22847;42.654;23.370;2023-06-22T01:31:40;14.52;;;9.13;;
36931;SDS011;22847;42.654;23.370;2023-06-22T01:34:09;13.98;;;9.70;;
36931;SDS011;22847;42.654;23.370;2023-06-22T01:36:37;12.95;;;9.35;;
36931;SDS011;22847;42.654;23.370;2023-06-22T01:39:04;11.68;;;8.90;;
36931;SDS011;22847;42.654;23.370;2023-06-22T01:44:15;10.60;;;8.82;;
36931;SDS011;22847;42.654;23.370;2023-06-22T01:46:41;11.65;;;9.50;;
36931;SDS011;22847;42.654;23.370;2023-06-22T01:49:06;12.70;;;10.13;;
36931;SDS011;22847;42.654;23.370;2023-06-22T01:51:33;11.45;;;9.95;;
36931;SDS011;22847;42.654;23.370;2023-06-22T01:53:59;12.82;;;9.90;;
36931;SDS011;22847;42.654;23.370;2023-06-22T01:56:24;12.82;;;9.50;;
36931;SDS011;22847;42.654;23.370;2023-06-22T01:58:57;10.98;;;9.13;;
36931;SDS011;22847;42.654;23.370;2023-06-22T02:02:19;13.77;;;9.23;;
36931;SDS011;22847;42.654;23.370;2023-06-22T02:04:42;11.20;;;9.88;;
36931;SDS011;22847;42.654;23.370;2023-06-22T02:07:13;14.17;;;9.80;;
36931;SDS011;22847;42.654;23.370;2023-06-22T02:09:44;13.73;;;10.13;;
36931;SDS011;22847;42.654;23.370;2023-06-22T02:12:12;15.20;;;10.23;;
36931;SDS011;22847;42.654;23.370;2023-06-22T02:14:41;13.38;;;10.25;;
36931;SDS011;22847;42.654;23.370;2023-06-22T02:17:07;13.27;;;9.68;;
36931;SDS011;22847;42.654;23.370;2023-06-22T02:19:36;16.67;;;10.00;;
36931;SDS011;22847;42.654;23.370;2023-06-22T02:22:03;12.20;;;9.30;;
36931;SDS011;22847;42.654;23.370;2023-06-22T02:24:29;13.20;;;9.07;;
36931;SDS011;22847;42.654;23.370;2023-06-22T02:26:57;12.38;;;8.77;;
36931;SDS011;22847;42.654;23.370;2023-06-22T02:29:23;12.80;;;8.65;;
36931;SDS011;22847;42.654;23.370;2023-06-22T02:31:49;17.70;;;9.05;;
36931;SDS011;22847;42.654;23.370;2023-06-22T02:34:14;10.35;;;9.00;;
36931;SDS011;22847;42.654;23.370;2023-06-22T02:36:43;14.55;;;9.00;;
36931;SDS011;22847;42.654;23.370;2023-06-22T02:39:17;14.73;;;8.85;;
36931;SDS011;22847;42.654;23.370;2023-06-22T02:41:48;11.80;;;9.60;;
36931;SDS011;22847;42.654;23.370;2023-06-22T02:44:17;10.95;;;8.75;;
36931;SDS011;22847;42.654;23.370;2023-06-22T02:46:43;12.90;;;8.85;;
36931;SDS011;22847;42.654;23.370;2023-06-22T02:49:09;14.32;;;9.52;;
36931;SDS011;22847;42.654;23.370;2023-06-22T02:51:35;10.95;;;8.60;;
36931;SDS011;22847;42.654;23.370;2023-06-22T02:54:00;12.90;;;10.18;;
36931;SDS011;22847;42.654;23.370;2023-06-22T02:56:28;15.07;;;9.88;;
36931;SDS011;22847;42.654;23.370;2023-06-22T02:58:55;14.38;;;8.55;;
36931;SDS011;22847;42.654;23.370;2023-06-22T03:01:25;15.57;;;8.75;;
36931;SDS011;22847;42.654;23.370;2023-06-22T03:03:52;15.98;;;9.45;;
36931;SDS011;22847;42.654;23.370;2023-06-22T03:06:18;19.75;;;9.55;;
36931;SDS011;22847;42.654;23.370;2023-06-22T03:08:48;22.40;;;9.65;;
36931;SDS011;22847;42.654;23.370;2023-06-22T03:11:13;17.73;;;9.75;;
36931;SDS011;22847;42.654;23.370;2023-06-22T03:13:39;18.25;;;9.93;;
36931;SDS011;22847;42.654;23.370;2023-06-22T03:16:04;13.20;;;9.27;;
36931;SDS011;22847;42.654;23.370;2023-06-22T03:18:29;18.17;;;10.05;;
36931;SDS011;22847;42.654;23.370;2023-06-22T03:20:55;13.77;;;10.13;;
36931;SDS011;22847;42.654;23.370;2023-06-22T03:23:20;11.88;;;9.73;;
36931;SDS011;22847;42.654;23.370;2023-06-22T03:25:46;13.70;;;10.13;;
36931;SDS011;22847;42.654;23.370;2023-06-22T03:28:12;20.48;;;9.80;;
36931;SDS011;22847;42.654;23.370;2023-06-22T03:30:37;17.85;;;9.55;;
36931;SDS011;22847;42.654;23.370;2023-06-22T03:33:03;17.38;;;10.18;;
36931;SDS011;22847;42.654;23.370;2023-06-22T03:35:28;15.68;;;9.48;;
36931;SDS011;22847;42.654;23.370;2023-06-22T03:37:54;19.75;;;10.45;;
36931;SDS011;22847;42.654;23.370;2023-06-22T03:40:19;16.27;;;11.25;;
36931;SDS011;22847;42.654;23.370;2023-06-22T03:42:45;17.80;;;11.55;;
36931;SDS011;22847;42.654;23.370;2023-06-22T03:45:11;19.13;;;10.20;;
36931;SDS011;22847;42.654;23.370;2023-06-22T03:47:36;21.40;;;10.18;;
36931;SDS011;22847;42.654;23.370;2023-06-22T03:50:02;22.42;;;12.18;;
36931;SDS011;22847;42.654;23.370;2023-06-22T03:52:29;18.35;;;10.38;;
36931;SDS011;22847;42.654;23.370;2023-06-22T03:54:55;16.92;;;10.77;;
36931;SDS011;22847;42.654;23.370;2023-06-22T03:57:20;21.35;;;10.32;;
36931;SDS011;22847;42.654;23.370;2023-06-22T03:59:46;13.90;;;10.82;;
36931;SDS011;22847;42.654;23.370;2023-06-22T04:02:11;13.63;;;9.80;;
36931;SDS011;22847;42.654;23.370;2023-06-22T04:04:37;22.23;;;10.57;;
36931;SDS011;22847;42.654;23.370;2023-06-22T04:07:04;17.40;;;11.02;;
36931;SDS011;22847;42.654;23.370;2023-06-22T04:09:29;17.88;;;10.95;;
36931;SDS011;22847;42.654;23.370;2023-06-22T04:11:55;16.05;;;10.88;;
36931;SDS011;22847;42.654;23.370;2023-06-22T04:14:20;16.90;;;10.38;;
36931;SDS011;22847;42.654;23.370;2023-06-22T04:16:46;20.50;;;11.65;;
36931;SDS011;22847;42.654;23.370;2023-06-22T04:19:11;18.60;;;12.50;;
36931;SDS011;22847;42.654;23.370;2023-06-22T04:21:41;17.13;;;11.55;;
36931;SDS011;22847;42.654;23.370;2023-06-22T04:24:13;16.65;;;12.25;;
36931;SDS011;22847;42.654;23.370;2023-06-22T04:26:38;22.27;;;13.10;;
36931;SDS011;22847;42.654;23.370;2023-06-22T04:29:06;20.40;;;14.27;;
36931;SDS011;22847;42.654;23.370;2023-06-22T04:31:33;16.83;;;14.50;;
36931;SDS011;22847;42.654;23.370;2023-06-22T04:34:03;21.65;;;14.90;;
36931;SDS011;22847;42.654;23.370;2023-06-22T04:36:33;19.88;;;14.15;;
36931;SDS011;22847;42.654;23.370;2023-06-22T04:39:07;17.70;;;14.18;;
36931;SDS011;22847;42.654;23.370;2023-06-22T04:41:36;23.10;;;14.65;;
36931;SDS011;22847;42.654;23.370;2023-06-22T04:44:15;23.77;;;14.35;;
36931;SDS011;22847;42.654;23.370;2023-06-22T04:46:48;19.75;;;15.07;;
36931;SDS011;22847;42.654;23.370;2023-06-22T04:49:29;22.35;;;14.27;;
36931;SDS011;22847;42.654;23.370;2023-06-22T04:52:02;20.10;;;13.18;;
36931;SDS011;22847;42.654;23.370;2023-06-22T04:54:31;21.10;;;13.52;;
36931;SDS011;22847;42.654;23.370;2023-06-22T04:57:01;22.45;;;13.55;;
36931;SDS011;22847;42.654;23.370;2023-06-22T04:59:27;20.20;;;13.60;;
36931;SDS011;22847;42.654;23.370;2023-06-22T05:01:58;20.98;;;13.80;;
36931;SDS011;22847;42.654;23.370;2023-06-22T05:04:25;22.33;;;13.43;;
36931;SDS011;22847;42.654;23.370;2023-06-22T05:06:53;21.20;;;14.05;;
36931;SDS011;22847;42.654;23.370;2023-06-22T05:09:19;20.13;;;14.30;;
36931;SDS011;22847;42.654;23.370;2023-06-22T05:11:46;22.17;;;14.27;;
36931;SDS011;22847;42.654;23.370;2023-06-22T05:14:12;24.63;;;13.65;;
36931;SDS011;22847;42.654;23.370;2023-06-22T05:16:38;19.88;;;13.80;;
36931;SDS011;22847;42.654;23.370;2023-06-22T05:19:03;20.38;;;13.75;;
36931;SDS011;22847;42.654;23.370;2023-06-22T05:21:29;22.55;;;14.43;;
36931;SDS011;22847;42.654;23.370;2023-06-22T05:23:56;16.95;;;13.30;;
36931;SDS011;22847;42.654;23.370;2023-06-22T05:26:27;20.15;;;13.70;;
36931;SDS011;22847;42.654;23.370;2023-06-22T05:28:53;23.63;;;13.98;;
36931;SDS011;22847;42.654;23.370;2023-06-22T05:31:19;24.35;;;13.80;;
36931;SDS011;22847;42.654;23.370;2023-06-22T05:33:45;19.42;;;12.85;;
36931;SDS011;22847;42.654;23.370;2023-06-22T05:36:11;20.65;;;15.15;;
36931;SDS011;22847;42.654;23.370;2023-06-22T05:38:37;20.35;;;13.82;;
36931;SDS011;22847;42.654;23.370;2023-06-22T05:41:03;22.67;;;14.48;;
36931;SDS011;22847;42.654;23.370;2023-06-22T05:43:30;22.60;;;14.75;;
36931;SDS011;22847;42.654;23.370;2023-06-22T05:45:55;17.38;;;12.90;;
36931;SDS011;22847;42.654;23.370;2023-06-22T05:48:21;23.10;;;13.07;;
36931;SDS011;22847;42.654;23.370;2023-06-22T05:50:46;21.55;;;13.70;;
36931;SDS011;22847;42.654;23.370;2023-06-22T05:53:12;25.63;;;14.57;;
36931;SDS011;22847;42.654;23.370;2023-06-22T05:55:37;20.08;;;14.95;;
36931;SDS011;22847;42.654;23.370;2023-06-22T05:58:03;18.65;;;13.25;;
36931;SDS011;22847;42.654;23.370;2023-06-22T06:00:29;22.48;;;15.65;;
36931;SDS011;22847;42.654;23.370;2023-06-22T06:02:54;17.58;;;13.70;;
36931;SDS011;22847;42.654;23.370;2023-06-22T06:05:20;20.48;;;13.40;;
36931;SDS011;22847;42.654;23.370;2023-06-22T06:07:45;18.10;;;13.02;;
36931;SDS011;22847;42.654;23.370;2023-06-22T06:10:11;23.52;;;12.90;;
36931;SDS011;22847;42.654;23.370;2023-06-22T06:12:37;24.63;;;14.10;;
36931;SDS011;22847;42.654;23.370;2023-06-22T06:15:03;25.63;;;13.95;;
36931;SDS011;22847;42.654;23.370;2023-06-22T06:17:29;23.73;;;15.85;;
36931;SDS011;22847;42.654;23.370;2023-06-22T06:19:54;19.52;;;12.82;;
36931;SDS011;22847;42.654;23.370;2023-06-22T06:22:20;16.17;;;13.63;;
36931;SDS011;22847;42.654;23.370;2023-06-22T06:24:47;18.27;;;12.57;;
36931;SDS011;22847;42.654;23.370;2023-06-22T06:27:13;16.67;;;12.57;;
36931;SDS011;22847;42.654;23.370;2023-06-22T06:29:38;20.35;;;12.10;;
36931;SDS011;22847;42.654;23.370;2023-06-22T06:32:04;20.05;;;12.73;;
36931;SDS011;22847;42.654;23.370;2023-06-22T06:34:30;23.10;;;12.15;;
36931;SDS011;22847;42.654;23.370;2023-06-22T06:36:55;22.42;;;13.05;;
36931;SDS011;22847;42.654;23.370;2023-06-22T06:39:21;24.48;;;13.75;;
36931;SDS011;22847;42.654;23.370;2023-06-22T06:41:46;24.83;;;13.77;;
36931;SDS011;22847;42.654;23.370;2023-06-22T06:44:12;23.33;;;13.35;;
36931;SDS011;22847;42.654;23.370;2023-06-22T06:46:37;17.95;;;11.77;;
36931;SDS011;22847;42.654;23.370;2023-06-22T06:49:03;20.25;;;12.30;;
36931;SDS011;22847;42.654;23.370;2023-06-22T06:51:28;19.50;;;12.93;;
36931;SDS011;22847;42.654;23.370;2023-06-22T06:53:54;18.98;;;11.63;;
36931;SDS011;22847;42.654;23.370;2023-06-22T06:56:20;16.45;;;11.05;;
36931;SDS011;22847;42.654;23.370;2023-06-22T06:58:45;14.52;;;10.75;;
36931;SDS011;22847;42.654;23.370;2023-06-22T07:01:11;19.95;;;10.85;;
36931;SDS011;22847;42.654;23.370;2023-06-22T07:03:37;17.95;;;11.05;;
36931;SDS011;22847;42.654;23.370;2023-06-22T07:06:03;16.98;;;11.05;;
36931;SDS011;22847;42.654;23.370;2023-06-22T07:08:29;18.20;;;10.85;;
36931;SDS011;22847;42.654;23.370;2023-06-22T07:10:54;18.73;;;10.80;;
36931;SDS011;22847;42.654;23.370;2023-06-22T07:13:20;11.40;;;9.32;;
36931;SDS011;22847;42.654;23.370;2023-06-22T07:15:45;13.52;;;10.98;;
36931;SDS011;22847;42.654;23.370;2023-06-22T07:18:11;17.35;;;10.85;;
36931;SDS011;22847;42.654;23.370;2023-06-22T07:20:36;16.35;;;10.80;;
36931;SDS011;22847;42.654;23.370;2023-06-22T07:23:02;15.75;;;10.55;;
36931;SDS011;22847;42.654;23.370;2023-06-22T07:25:28;13.15;;;11.20;;
36931;SDS011;22847;42.654;23.370;2023-06-22T07:28:03;16.15;;;11.23;;
36931;SDS011;22847;42.654;23.370;2023-06-22T07:30:30;16.27;;;11.00;;
36931;SDS011;22847;42.654;23.370;2023-06-22T07:32:57;13.75;;;10.68;;
36931;SDS011;22847;42.654;23.370;2023-06-22T07:35:23;17.80;;;11.07;;
36931;SDS011;22847;42.654;23.370;2023-06-22T07:37:49;13.65;;;11.30;;
36931;SDS011;22847;42.654;23.370;2023-06-22T07:40:14;15.23;;;10.98;;
36931;SDS011;22847;42.654;23.370;2023-06-22T07:42:40;15.80;;;11.50;;
36931;SDS011;22847;42.654;23.370;2023-06-22T07:45:07;20.05;;;11.40;;
36931;SDS011;22847;42.654;23.370;2023-06-22T07:47:33;14.35;;;11.05;;
36931;SDS011;22847;42.654;23.370;2023-06-22T07:50:00;14.55;;;9.75;;
36931;SDS011;22847;42.654;23.370;2023-06-22T07:52:26;13.77;;;10.70;;
36931;SDS011;22847;42.654;23.370;2023-06-22T07:54:52;16.80;;;11.43;;
36931;SDS011;22847;42.654;23.370;2023-06-22T07:57:18;20.23;;;12.18;;
36931;SDS011;22847;42.654;23.370;2023-06-22T07:59:44;16.05;;;11.18;;
36931;SDS011;22847;42.654;23.370;2023-06-22T08:02:10;20.38;;;12.20;;
36931;SDS011;22847;42.654;23.370;2023-06-22T08:04:35;18.67;;;12.75;;
36931;SDS011;22847;42.654;23.370;2023-06-22T08:07:01;19.38;;;12.10;;
36931;SDS011;22847;42.654;23.370;2023-06-22T08:09:30;17.38;;;11.60;;
36931;SDS011;22847;42.654;23.370;2023-06-22T08:11:57;18.05;;;11.77;;
36931;SDS011;22847;42.654;23.370;2023-06-22T08:14:26;18.10;;;13.23;;
36931;SDS011;22847;42.654;23.370;2023-06-22T08:16:52;15.80;;;11.85;;
36931;SDS011;22847;42.654;23.370;2023-06-22T08:19:17;17.10;;;11.93;;
36931;SDS011;22847;42.654;23.370;2023-06-22T08:21:43;14.77;;;11.20;;
36931;SDS011;22847;42.654;23.370;2023-06-22T08:24:08;18.23;;;12.30;;
36931;SDS011;22847;42.654;23.370;2023-06-22T08:26:34;17.27;;;11.65;;
36931;SDS011;22847;42.654;23.370;2023-06-22T08:29:04;22.50;;;10.82;;
36931;SDS011;22847;42.654;23.370;2023-06-22T08:31:30;17.85;;;12.25;;
36931;SDS011;22847;42.654;23.370;2023-06-22T08:34:00;18.13;;;11.90;;
36931;SDS011;22847;42.654;23.370;2023-06-22T08:36:25;21.70;;;11.80;;
36931;SDS011;22847;42.654;23.370;2023-06-22T08:38:53;15.05;;;10.82;;
36931;SDS011;22847;42.654;23.370;2023-06-22T08:41:22;15.55;;;10.73;;
36931;SDS011;22847;42.654;23.370;2023-06-22T08:43:48;19.23;;;11.90;;
36931;SDS011;22847;42.654;23.370;2023-06-22T08:46:13;18.10;;;11.85;;
36931;SDS011;22847;42.654;23.370;2023-06-22T08:48:39;23.63;;;12.05;;
36931;SDS011;22847;42.654;23.370;2023-06-22T08:51:04;17.42;;;11.60;;
36931;SDS011;22847;42.654;23.370;2023-06-22T08:53:30;18.92;;;11.27;;
36931;SDS011;22847;42.654;23.370;2023-06-22T08:55:55;17.25;;;11.57;;
36931;SDS011;22847;42.654;23.370;2023-06-22T08:58:21;19.10;;;11.48;;
36931;SDS011;22847;42.654;23.370;2023-06-22T09:00:47;18.55;;;12.00;;
36931;SDS011;22847;42.654;23.370;2023-06-22T09:03:12;16.35;;;11.88;;
36931;SDS011;22847;42.654;23.370;2023-06-22T09:05:38;18.45;;;12.13;;
36931;SDS011;22847;42.654;23.370;2023-06-22T09:08:04;16.90;;;12.10;;
36931;SDS011;22847;42.654;23.370;2023-06-22T09:10:30;16.23;;;11.80;;
36931;SDS011;22847;42.654;23.370;2023-06-22T09:12:55;16.13;;;11.93;;
36931;SDS011;22847;42.654;23.370;2023-06-22T09:15:21;16.85;;;11.35;;
36931;SDS011;22847;42.654;23.370;2023-06-22T09:17:46;14.98;;;11.88;;
36931;SDS011;22847;42.654;23.370;2023-06-22T09:20:12;16.42;;;10.93;;
36931;SDS011;22847;42.654;23.370;2023-06-22T09:22:38;13.75;;;9.57;;
36931;SDS011;22847;42.654;23.370;2023-06-22T09:25:04;13.63;;;9.55;;
36931;SDS011;22847;42.654;23.370;2023-06-22T09:27:30;13.27;;;9.20;;
36931;SDS011;22847;42.654;23.370;2023-06-22T09:29:55;16.20;;;9.65;;
36931;SDS011;22847;42.654;23.370;2023-06-22T09:32:23;12.75;;;9.57;;
36931;SDS011;22847;42.654;23.370;2023-06-22T09:34:48;15.05;;;9.60;;
36931;SDS011;22847;42.654;23.370;2023-06-22T09:37:14;13.98;;;10.27;;
36931;SDS011;22847;42.654;23.370;2023-06-22T09:39:39;11.55;;;8.70;;
36931;SDS011;22847;42.654;23.370;2023-06-22T09:42:05;10.98;;;9.52;;
36931;SDS011;22847;42.654;23.370;2023-06-22T09:44:31;11.07;;;9.75;;
36931;SDS011;22847;42.654;23.370;2023-06-22T09:46:56;14.57;;;10.23;;
36931;SDS011;22847;42.654;23.370;2023-06-22T09:49:22;18.83;;;10.23;;
36931;SDS011;22847;42.654;23.370;2023-06-22T09:51:47;18.45;;;10.77;;
36931;SDS011;22847;42.654;23.370;2023-06-22T09:54:14;16.77;;;10.02;;
36931;SDS011;22847;42.654;23.370;2023-06-22T09:56:40;14.35;;;10.23;;
36931;SDS011;22847;42.654;23.370;2023-06-22T09:59:05;12.73;;;9.77;;
36931;SDS011;22847;42.654;23.370;2023-06-22T10:01:31;15.32;;;10.80;;
36931;SDS011;22847;42.654;23.370;2023-06-22T10:03:56;11.48;;;10.02;;
36931;SDS011;22847;42.654;23.370;2023-06-22T10:06:22;14.27;;;10.80;;
36931;SDS011;22847;42.654;23.370;2023-06-22T10:08:47;14.57;;;10.90;;
36931;SDS011;22847;42.654;23.370;2023-06-22T10:11:16;17.25;;;10.60;;
36931;SDS011;22847;42.654;23.370;2023-06-22T10:13:41;15.65;;;10.50;;
36931;SDS011;22847;42.654;23.370;2023-06-22T10:16:06;17.27;;;10.82;;
36931;SDS011;22847;42.654;23.370;2023-06-22T10:18:32;16.33;;;10.55;;
36931;SDS011;22847;42.654;23.370;2023-06-22T10:20:58;13.75;;;9.68;;
36931;SDS011;22847;42.654;23.370;2023-06-22T10:23:23;15.23;;;11.27;;
36931;SDS011;22847;42.654;23.370;2023-06-22T10:25:49;14.80;;;10.73;;
36931;SDS011;22847;42.654;23.370;2023-06-22T10:28:14;13.82;;;11.00;;
36931;SDS011;22847;42.654;23.370;2023-06-22T10:30:40;12.65;;;10.98;;
36931;SDS011;22847;42.654;23.370;2023-06-22T10:33:07;13.93;;;11.65;;
36931;SDS011;22847;42.654;23.370;2023-06-22T10:35:33;12.63;;;11.32;;
36931;SDS011;22847;42.654;23.370;2023-06-22T10:37:58;18.60;;;10.65;;
36931;SDS011;22847;42.654;23.370;2023-06-22T10:40:24;12.65;;;10.90;;
36931;SDS011;22847;42.654;23.370;2023-06-22T10:42:49;11.93;;;9.88;;
36931;SDS011;22847;42.654;23.370;2023-06-22T10:45:15;14.52;;;11.38;;
36931;SDS011;22847;42.654;23.370;2023-06-22T10:47:40;13.90;;;11.48;;
36931;SDS011;22847;42.654;23.370;2023-06-22T10:50:07;16.15;;;11.23;;
36931;SDS011;22847;42.654;23.370;2023-06-22T10:52:32;15.63;;;11.80;;
36931;SDS011;22847;42.654;23.370;2023-06-22T10:54:58;13.93;;;10.30;;
36931;SDS011;22847;42.654;23.370;2023-06-22T10:57:23;12.00;;;9.95;;
36931;SDS011;22847;42.654;23.370;2023-06-22T10:59:49;21.98;;;8.85;;
36931;SDS011;22847;42.654;23.370;2023-06-22T11:02:14;11.88;;;8.60;;
36931;SDS011;22847;42.654;23.370;2023-06-22T11:04:40;18.63;;;9.73;;
36931;SDS011;22847;42.654;23.370;2023-06-22T11:07:05;9.95;;;8.95;;
36931;SDS011;22847;42.654;23.370;2023-06-22T11:09:31;10.10;;;8.98;;
36931;SDS011;22847;42.654;23.370;2023-06-22T11:11:56;14.23;;;8.85;;
36931;SDS011;22847;42.654;23.370;2023-06-22T11:14:23;15.68;;;9.27;;
36931;SDS011;22847;42.654;23.370;2023-06-22T11:16:49;12.07;;;8.90;;
36931;SDS011;22847;42.654;23.370;2023-06-22T11:19:15;11.60;;;8.05;;
36931;SDS011;22847;42.654;23.370;2023-06-22T11:21:40;9.75;;;8.57;;
36931;SDS011;22847;42.654;23.370;2023-06-22T11:24:06;12.63;;;8.70;;
36931;SDS011;22847;42.654;23.370;2023-06-22T11:26:32;10.07;;;9.00;;
36931;SDS011;22847;42.654;23.370;2023-06-22T11:28:58;10.75;;;8.50;;
36931;SDS011;22847;42.654;23.370;2023-06-22T11:31:23;16.55;;;8.75;;
36931;SDS011;22847;42.654;23.370;2023-06-22T11:33:49;10.85;;;8.60;;
36931;SDS011;22847;42.654;23.370;2023-06-22T11:36:15;11.43;;;8.15;;
36931;SDS011;22847;42.654;23.370;2023-06-22T11:38:41;11.48;;;8.48;;
36931;SDS011;22847;42.654;23.370;2023-06-22T11:41:07;10.25;;;8.88;;
36931;SDS011;22847;42.654;23.370;2023-06-22T11:43:33;9.43;;;8.52;;
36931;SDS011;22847;42.654;23.370;2023-06-22T11:45:59;14.77;;;8.13;;
36931;SDS011;22847;42.654;23.370;2023-06-22T11:48:26;9.70;;;7.90;;
36931;SDS011;22847;42.654;23.370;2023-06-22T11:50:51;8.98;;;8.00;;
36931;SDS011;22847;42.654;23.370;2023-06-22T11:53:17;9.70;;;8.48;;
36931;SDS011;22847;42.654;23.370;2023-06-22T11:55:43;9.85;;;7.93;;
36931;SDS011;22847;42.654;23.370;2023-06-22T11:58:09;10.88;;;8.20;;
36931;SDS011;22847;42.654;23.370;2023-06-22T12:00:35;13.60;;;9.52;;
36931;SDS011;22847;42.654;23.370;2023-06-22T12:03:00;10.88;;;8.70;;
36931;SDS011;22847;42.654;23.370;2023-06-22T12:05:26;10.55;;;8.63;;
36931;SDS011;22847;42.654;23.370;2023-06-22T12:07:54;9.07;;;8.10;;
36931;SDS011;22847;42.654;23.370;2023-06-22T12:10:20;15.20;;;12.60;;
36931;SDS011;22847;42.654;23.370;2023-06-22T12:12:49;12.55;;;11.00;;
36931;SDS011;22847;42.654;23.370;2023-06-22T12:15:15;14.25;;;9.63;;
36931;SDS011;22847;42.654;23.370;2023-06-22T12:17:40;11.55;;;8.93;;
36931;SDS011;22847;42.654;23.370;2023-06-22T12:20:06;11.18;;;8.73;;
36931;SDS011;22847;42.654;23.370;2023-06-22T12:22:33;12.40;;;8.68;;
36931;SDS011;22847;42.654;23.370;2023-06-22T12:24:59;17.33;;;8.88;;
36931;SDS011;22847;42.654;23.370;2023-06-22T12:27:24;14.38;;;9.32;;
36931;SDS011;22847;42.654;23.370;2023-06-22T12:29:50;16.80;;;9.77;;
36931;SDS011;22847;42.654;23.370;2023-06-22T12:32:16;14.63;;;9.43;;
36931;SDS011;22847;42.654;23.370;2023-06-22T12:34:42;15.85;;;9.32;;
36931;SDS011;22847;42.654;23.370;2023-06-22T12:37:08;13.25;;;9.48;;
36931;SDS011;22847;42.654;23.370;2023-06-22T12:39:34;17.25;;;11.88;;
36931;SDS011;22847;42.654;23.370;2023-06-22T12:41:59;25.25;;;11.38;;
36931;SDS011;22847;42.654;23.370;2023-06-22T12:44:25;18.42;;;9.52;;
36931;SDS011;22847;42.654;23.370;2023-06-22T12:46:50;18.13;;;9.20;;
36931;SDS011;22847;42.654;23.370;2023-06-22T12:49:16;16.45;;;9.48;;
36931;SDS011;22847;42.654;23.370;2023-06-22T12:51:42;14.38;;;9.32;;
36931;SDS011;22847;42.654;23.370;2023-06-22T12:54:08;15.60;;;9.75;;
36931;SDS011;22847;42.654;23.370;2023-06-22T12:56:34;15.50;;;10.27;;
36931;SDS011;22847;42.654;23.370;2023-06-22T12:58:59;15.05;;;10.23;;
36931;SDS011;22847;42.654;23.370;2023-06-22T13:01:35;17.15;;;10.80;;
36931;SDS011;22847;42.654;23.370;2023-06-22T13:04:02;15.27;;;10.35;;
36931;SDS011;22847;42.654;23.370;2023-06-22T13:06:27;16.00;;;9.75;;
36931;SDS011;22847;42.654;23.370;2023-06-22T13:08:53;13.02;;;9.85;;
36931;SDS011;22847;42.654;23.370;2023-06-22T13:11:18;18.05;;;9.95;;
36931;SDS011;22847;42.654;23.370;2023-06-22T13:13:44;12.85;;;10.20;;
36931;SDS011;22847;42.654;23.370;2023-06-22T13:16:10;13.25;;;10.02;;
36931;SDS011;22847;42.654;23.370;2023-06-22T13:18:36;11.90;;;9.48;;
36931;SDS011;22847;42.654;23.370;2023-06-22T13:21:02;18.02;;;10.85;;
36931;SDS011;22847;42.654;23.370;2023-06-22T13:23:28;17.92;;;10.18;;
36931;SDS011;22847;42.654;23.370;2023-06-22T13:25:53;16.13;;;10.60;;
36931;SDS011;22847;42.654;23.370;2023-06-22T13:28:18;14.57;;;10.57;;
36931;SDS011;22847;42.654;23.370;2023-06-22T13:30:45;15.48;;;9.93;;
36931;SDS011;22847;42.654;23.370;2023-06-22T13:33:12;13.63;;;10.07;;
36931;SDS011;22847;42.654;23.370;2023-06-22T13:35:38;17.02;;;10.55;;
36931;SDS011;22847;42.654;23.370;2023-06-22T13:38:03;15.52;;;10.10;;
36931;SDS011;22847;42.654;23.370;2023-06-22T13:40:29;19.95;;;10.18;;
36931;SDS011;22847;42.654;23.370;2023-06-22T13:42:55;14.48;;;9.80;;
36931;SDS011;22847;42.654;23.370;2023-06-22T13:45:21;14.43;;;9.70;;
36931;SDS011;22847;42.654;23.370;2023-06-22T13:47:46;16.20;;;10.60;;
36931;SDS011;22847;42.654;23.370;2023-06-22T13:50:12;15.25;;;11.07;;
36931;SDS011;22847;42.654;23.370;2023-06-22T13:52:38;16.08;;;10.60;;
36931;SDS011;22847;42.654;23.370;2023-06-22T13:55:04;17.52;;;11.23;;
36931;SDS011;22847;42.654;23.370;2023-06-22T13:57:31;18.63;;;10.65;;
36931;SDS011;22847;42.654;23.370;2023-06-22T13:59:58;20.17;;;9.82;;
36931;SDS011;22847;42.654;23.370;2023-06-22T14:02:25;14.10;;;10.45;;
36931;SDS011;22847;42.654;23.370;2023-06-22T14:04:51;17.00;;;10.32;;
36931;SDS011;22847;42.654;23.370;2023-06-22T14:07:16;13.45;;;10.75;;
36931;SDS011;22847;42.654;23.370;2023-06-22T14:09:44;21.38;;;10.55;;
36931;SDS011;22847;42.654;23.370;2023-06-22T14:12:10;21.88;;;10.57;;
36931;SDS011;22847;42.654;23.370;2023-06-22T14:14:36;18.13;;;10.70;;
36931;SDS011;22847;42.654;23.370;2023-06-22T14:17:01;22.27;;;10.63;;
36931;SDS011;22847;42.654;23.370;2023-06-22T14:19:27;15.05;;;10.93;;